Terminal Aerodrome Forecast
Issued by NWS Northern Indiana

Home | Current Version | Previous Version | Graphics & Text | Print | Product List | Glossary On
Versions: 1 2 3 4 5 6 7 8 9 10 11 12 13
000
FTUS43 KIWX 250500
TAFFWA
TAF
KFWA 250535Z 2506/2606 22008KT P6SM FEW018 OVC029
     FM250800 VRB04KT P6SM OVC015
     FM251500 06008KT 3SM -SN OVC015
     FM251800 06016G22KT 1SM -SN OVC008
      TEMPO 2519/2523 1/2SM SN FZFG VV003
     FM260300 05012G18KT P6SM -SN OVC012=

USA.gov is the U.S. government's official web portal to all federal, state and local government web resources and services.